Hardin, Texas
Current Conditions -  °F | °C
As of 7:15 AM on Thursday 23 Oct 2014 (Local Time) from K6R3 Reporting Station
Scattered Clouds Scattered Clouds  
Wind Chill: 58°   Ceiling: Unl
Heat Index: 58°   Visibility: 10mi
Dew Point: 55°   Wind: 0mph
Humidity: 90%   Direction: NA
Pressure: 30.1"   Gusts: NA
Location:  30.15°N, 94.74°W
Report Text: K6R3 231215Z AUTO 00000KT 10SM SCT120 14/13 A3010 RMK AO2 T01420125
Loading
Personal Weather Stations






























Interactive Weather Map
Tropical Storm Tracking
New forecast layout! Learn more

10-Day Weather Forecast

Advertisements
Track Severe Weather on mobile